OINN

Noshahr Airport

Airport
ICAO code
OINN
IATA Code
NSH
Summary
ICAO Region
MID
ICAO Territory
Location

Nowshahr, Mazandaran Province

Serving
Chalus
Elevation
-61 ft
Coordinates
36° 39' 37" N , 51° 28' 9" E
KCC
Metar
Observation
OINN 041400Z 00000KT 4000 -RA FEW020CB BKN025 OVC070 08/06 Q1033
Station
Noshahr
Date/Time
2022-12-04 14:00:00
Wind direction
Wind speed
00 kts
Lowest cloud amount
few clouds
Temperature
8°C
Dew point
6°C
Humidity
87%
QNH
1033 hPa
Weather condition
n/a

Airport serving Nowshahr and Chalus in northern Iran.

Climatology

Humid sub-tropical climate (Köppen climate classification Csa).

Runways

Designator Length Width Surface Rops
10/28 1884 35 ASP No/No

Airport map

Aerial View

SKYbrary Partners:

Safety knowledge contributed by: